createdAt,value
2019-03-01T00:01:05.027Z,1.00
2019-03-01T00:03:34.833Z,1.00
2019-03-01T00:06:15.982Z,1.00
2019-03-01T00:09:22.074Z,1.00
2019-03-01T00:11:56.816Z,1.00
2019-03-01T00:15:01.649Z,1.00
2019-03-01T00:17:42.359Z,1.00
2019-03-01T00:20:25.799Z,1.00
2019-03-01T00:23:18.218Z,1.00
2019-03-01T00:26:11.031Z,1.00
2019-03-01T00:28:51.728Z,1.00
2019-03-01T00:31:35.462Z,1.00
2019-03-01T00:34:10.060Z,1.00
2019-03-01T00:36:53.529Z,1.00
2019-03-01T00:39:36.967Z,1.00
2019-03-01T00:42:21.242Z,1.00
2019-03-01T00:44:50.111Z,1.00
2019-03-01T00:47:18.933Z,1.00
2019-03-01T00:49:47.705Z,1.00
2019-03-01T00:52:16.482Z,1.00
2019-03-01T00:54:45.263Z,1.00
2019-03-01T00:57:14.015Z,1.00
2019-03-01T00:59:42.767Z,1.00
2019-03-01T01:02:11.525Z,1.00
2019-03-01T01:04:40.288Z,1.00
2019-03-01T01:07:09.037Z,1.00
2019-03-01T01:09:37.779Z,5.20
2019-03-01T01:12:06.548Z,7.00
2019-03-01T01:14:35.326Z,4.80
2019-03-01T01:17:04.082Z,3.20
2019-03-01T01:19:32.825Z,5.50
2019-03-01T01:22:01.613Z,15.60
2019-03-01T01:24:30.379Z,9.90
2019-03-01T01:26:59.260Z,10.30
2019-03-01T01:29:28.020Z,6.30
2019-03-01T01:31:56.783Z,1.00
2019-03-01T01:34:25.557Z,1.00
2019-03-01T01:36:54.307Z,1.00
2019-03-01T01:39:23.221Z,1.00
2019-03-01T01:41:51.956Z,1.00
2019-03-01T01:44:20.741Z,1.00
2019-03-01T01:46:49.523Z,1.00
2019-03-01T01:49:18.923Z,1.00
2019-03-01T01:51:47.672Z,1.00
2019-03-01T01:54:16.533Z,1.00
2019-03-01T01:56:45.326Z,1.00
2019-03-01T01:59:14.080Z,1.00
2019-03-01T02:01:42.900Z,1.00
2019-03-01T02:04:11.752Z,1.00
2019-03-01T02:06:40.500Z,1.00
2019-03-01T02:09:21.790Z,1.00
2019-03-01T02:11:50.557Z,1.00
2019-03-01T02:14:19.363Z,1.00
2019-03-01T02:16:48.179Z,1.00
2019-03-01T02:19:16.939Z,1.00
2019-03-01T02:21:45.666Z,1.00
2019-03-01T02:24:14.437Z,1.00
2019-03-01T02:26:43.264Z,1.00
2019-03-01T02:29:12.027Z,1.00
2019-03-01T02:31:43.425Z,1.00
2019-03-01T02:34:12.156Z,1.00
2019-03-01T02:36:40.910Z,1.00
2019-03-01T02:39:09.688Z,1.00
2019-03-01T02:41:38.614Z,2.40
2019-03-01T02:44:07.421Z,5.50
2019-03-01T02:46:36.185Z,2.20
2019-03-01T02:49:05.039Z,4.70
2019-03-01T02:51:33.829Z,7.20
2019-03-01T02:54:02.925Z,3.10
2019-03-01T02:56:31.657Z,9.00
2019-03-01T02:59:00.485Z,8.00
2019-03-01T03:01:29.215Z,6.00
2019-03-01T03:03:57.990Z,7.90
2019-03-01T03:06:28.499Z,3.20
2019-03-01T03:08:57.318Z,1.00
2019-03-01T03:11:26.153Z,4.30
2019-03-01T03:13:54.908Z,2.90
2019-03-01T03:16:23.749Z,1.80
2019-03-01T03:18:52.822Z,2.20
2019-03-01T03:21:21.554Z,9.20
2019-03-01T03:23:50.561Z,7.90
2019-03-01T03:26:22.863Z,9.80
2019-03-01T03:28:51.623Z,7.60
2019-03-01T03:31:20.625Z,5.90
2019-03-01T03:33:49.481Z,5.90
2019-03-01T03:36:18.284Z,2.50
2019-03-01T03:38:47.045Z,5.80
2019-03-01T03:41:15.794Z,5.90
2019-03-01T03:43:44.555Z,1.00
2019-03-01T03:46:13.322Z,1.00
2019-03-01T03:48:42.134Z,1.00
2019-03-01T03:51:10.883Z,1.00
2019-03-01T03:53:39.632Z,1.00
2019-03-01T03:56:08.382Z,1.00
2019-03-01T03:58:37.121Z,1.00
2019-03-01T04:01:05.901Z,1.00
2019-03-01T04:03:34.737Z,1.00
2019-03-01T04:06:03.627Z,1.00
2019-03-01T04:08:32.662Z,1.00
2019-03-01T04:11:01.503Z,1.00
2019-03-01T04:13:30.253Z,1.00
2019-03-01T04:15:58.980Z,1.00
2019-03-01T04:18:27.769Z,1.00
2019-03-01T04:20:56.516Z,2.10
2019-03-01T04:23:25.546Z,4.10
2019-03-01T04:25:54.632Z,1.00
2019-03-01T04:28:23.418Z,1.00
2019-03-01T04:30:52.155Z,5.80
2019-03-01T04:33:20.939Z,5.90
2019-03-01T04:35:49.779Z,6.70
2019-03-01T04:38:18.563Z,16.10
2019-03-01T04:40:47.297Z,14.50
2019-03-01T04:43:16.066Z,14.50
2019-03-01T04:45:44.909Z,16.90
2019-03-01T04:48:13.682Z,16.70
2019-03-01T04:50:42.411Z,19.10
2019-03-01T04:53:11.189Z,26.20
2019-03-01T04:55:39.916Z,20.40
2019-03-01T04:58:08.710Z,19.00
2019-03-01T05:00:37.550Z,21.80
2019-03-01T05:03:06.367Z,22.10
2019-03-01T05:05:35.120Z,23.30
2019-03-01T05:08:03.860Z,33.30
2019-03-01T05:10:32.650Z,29.30
2019-03-01T05:13:01.472Z,36.90
2019-03-01T05:15:30.223Z,37.50
2019-03-01T05:17:58.993Z,43.90
2019-03-01T05:20:29.783Z,56.10
2019-03-01T05:22:58.223Z,58.40
2019-03-01T05:25:26.980Z,56.90
2019-03-01T05:27:55.756Z,54.60
2019-03-01T05:30:24.517Z,59.70
2019-03-01T05:32:53.261Z,65.70
2019-03-01T05:35:22.092Z,77.60
2019-03-01T05:37:50.846Z,84.80
2019-03-01T05:40:19.596Z,91.10
2019-03-01T05:42:48.583Z,99.00
2019-03-01T05:45:25.725Z,99.90
2019-03-01T05:47:54.464Z,99.90
2019-03-01T05:50:23.243Z,99.90
2019-03-01T05:52:51.982Z,99.90
2019-03-01T05:55:21.062Z,99.90
2019-03-01T05:58:21.251Z,99.90
2019-03-01T06:00:51.277Z,99.90
2019-03-01T06:03:37.242Z,99.90
2019-03-01T06:06:06.298Z,99.90
2019-03-01T06:08:46.294Z,99.90
2019-03-01T06:11:18.143Z,99.90
2019-03-01T06:13:55.805Z,99.90
2019-03-01T06:16:30.265Z,99.90
2019-03-01T06:19:02.142Z,99.90
2019-03-01T06:21:56.127Z,99.90
2019-03-01T06:24:36.812Z,99.90
2019-03-01T06:27:17.419Z,99.90
2019-03-01T06:29:51.989Z,99.90
2019-03-01T06:32:44.610Z,99.90
2019-03-01T06:35:25.402Z,99.90
2019-03-01T06:38:16.937Z,99.90
2019-03-01T06:41:16.983Z,99.90
2019-03-01T06:44:04.888Z,99.90
2019-03-01T06:46:36.721Z,99.90
2019-03-01T06:49:07.182Z,99.90
2019-03-01T06:51:35.949Z,99.90
2019-03-01T06:54:04.761Z,99.90
2019-03-01T06:56:33.581Z,99.90
2019-03-01T06:59:02.366Z,99.90
2019-03-01T07:01:31.382Z,99.90
2019-03-01T07:04:02.049Z,99.90
2019-03-01T07:06:30.930Z,99.90
2019-03-01T07:08:59.732Z,99.90
2019-03-01T07:11:28.530Z,99.90
2019-03-01T07:13:57.322Z,99.90
2019-03-01T07:16:26.683Z,99.90
2019-03-01T07:18:55.592Z,99.90
2019-03-01T07:21:24.367Z,99.90
2019-03-01T07:23:53.272Z,99.90
2019-03-01T07:26:22.101Z,99.80
2019-03-01T07:28:50.891Z,99.70
2019-03-01T07:31:19.705Z,98.00
2019-03-01T07:33:48.477Z,99.20
2019-03-01T07:36:17.249Z,97.50
2019-03-01T07:38:46.037Z,99.00
2019-03-01T07:41:14.796Z,97.60
2019-03-01T07:43:43.594Z,98.30
2019-03-01T07:46:12.452Z,98.30
2019-03-01T07:48:41.491Z,98.80
2019-03-01T07:51:10.318Z,98.20
2019-03-01T07:53:41.822Z,98.00
2019-03-01T07:56:09.597Z,99.20
2019-03-01T07:58:38.348Z,99.10
2019-03-01T08:01:07.146Z,99.10
2019-03-01T08:03:35.978Z,99.10
2019-03-01T08:06:04.989Z,97.80
2019-03-01T08:08:34.818Z,98.30
2019-03-01T08:11:04.190Z,96.80
2019-03-01T08:13:32.973Z,98.00
2019-03-01T08:16:01.914Z,99.90
2019-03-01T08:18:30.729Z,99.90
2019-03-01T08:20:59.475Z,99.90
2019-03-01T08:23:31.613Z,99.90
2019-03-01T08:25:59.915Z,99.90
2019-03-01T08:28:28.853Z,99.90
2019-03-01T08:30:57.705Z,99.90
2019-03-01T08:33:26.472Z,99.90
2019-03-01T08:35:55.257Z,99.90
2019-03-01T08:38:25.459Z,29.60
2019-03-01T08:40:54.603Z,26.20
2019-03-01T08:43:23.415Z,20.90
2019-03-01T08:45:52.199Z,23.10
2019-03-01T08:48:20.975Z,21.30
2019-03-01T08:50:49.716Z,14.90
2019-03-01T08:53:18.805Z,10.40
2019-03-01T08:55:47.585Z,13.40
2019-03-01T08:58:16.445Z,8.70
2019-03-01T09:00:47.426Z,9.10
2019-03-01T09:03:31.101Z,8.40
2019-03-01T09:05:59.985Z,2.20
2019-03-01T09:08:28.721Z,27.10
2019-03-01T09:10:57.540Z,90.80
2019-03-01T09:13:26.374Z,97.90
2019-03-01T09:15:55.160Z,99.90
2019-03-01T09:18:23.912Z,99.90
2019-03-01T09:20:52.737Z,99.90
2019-03-01T09:23:26.445Z,99.90
2019-03-01T09:25:52.088Z,99.90
2019-03-01T09:28:21.142Z,99.90
2019-03-01T09:30:49.998Z,99.90
2019-03-01T09:33:21.579Z,99.90
2019-03-01T09:35:53.954Z,99.90
2019-03-01T09:38:22.735Z,99.90
2019-03-01T09:40:51.549Z,99.90
2019-03-01T09:43:20.333Z,99.90
2019-03-01T09:45:49.580Z,99.90
2019-03-01T09:48:18.471Z,99.90
2019-03-01T09:50:47.288Z,99.90
2019-03-01T09:53:16.084Z,99.90
2019-03-01T09:55:44.899Z,99.90
2019-03-01T09:58:13.737Z,99.90
2019-03-01T10:00:56.524Z,99.90
2019-03-01T10:03:24.674Z,99.90
2019-03-01T10:05:53.462Z,99.90
2019-03-01T10:08:22.289Z,99.90
2019-03-01T10:10:51.032Z,99.90
2019-03-01T10:13:19.815Z,99.90
2019-03-01T10:15:48.572Z,99.90
2019-03-01T10:18:17.414Z,99.90
2019-03-01T10:20:46.224Z,99.90
2019-03-01T10:23:15.030Z,99.90
2019-03-01T10:25:43.870Z,99.90
2019-03-01T10:28:12.677Z,99.90
2019-03-01T10:30:41.712Z,97.40
2019-03-01T10:33:10.533Z,99.90
2019-03-01T10:35:39.398Z,95.20
2019-03-01T10:38:08.231Z,91.80
2019-03-01T10:40:37.317Z,90.80
2019-03-01T10:43:06.072Z,89.40
2019-03-01T10:45:34.848Z,85.80
2019-03-01T10:48:03.719Z,80.80
2019-03-01T10:50:32.583Z,90.00
2019-03-01T10:53:01.358Z,89.30
2019-03-01T10:55:30.125Z,85.90
2019-03-01T10:57:58.927Z,91.30
2019-03-01T11:00:28.688Z,95.10
2019-03-01T11:02:58.138Z,96.00
2019-03-01T11:05:27.324Z,96.70
2019-03-01T11:07:58.893Z,97.00
2019-03-01T11:10:30.488Z,94.70
2019-03-01T11:12:59.364Z,92.70
2019-03-01T11:15:28.165Z,90.80
2019-03-01T11:17:57.049Z,70.20
2019-03-01T11:20:25.938Z,99.90
2019-03-01T11:22:54.764Z,99.90
2019-03-01T11:25:24.677Z,99.90
2019-03-01T11:27:53.625Z,99.90
2019-03-01T11:30:27.391Z,99.90
2019-03-01T11:32:56.190Z,99.90
2019-03-01T11:35:25.123Z,99.90
2019-03-01T11:37:54.128Z,99.90
2019-03-01T11:40:34.238Z,99.90
2019-03-01T11:43:03.261Z,99.90
2019-03-01T11:45:32.061Z,99.90
2019-03-01T11:48:00.826Z,99.90
2019-03-01T11:50:29.593Z,99.90
2019-03-01T11:52:58.412Z,99.90
2019-03-01T11:55:27.232Z,99.90
2019-03-01T11:57:56.022Z,99.90
2019-03-01T12:00:25.843Z,99.90
2019-03-01T12:02:54.627Z,99.90
2019-03-01T12:05:23.414Z,99.90
2019-03-01T12:07:52.240Z,99.90
2019-03-01T12:10:26.130Z,99.90
2019-03-01T12:12:54.906Z,99.90
2019-03-01T12:15:23.692Z,99.90
2019-03-01T12:17:52.457Z,99.90
2019-03-01T12:20:31.053Z,99.90
2019-03-01T12:22:59.884Z,99.90
2019-03-01T12:25:28.981Z,99.90
2019-03-01T12:27:57.779Z,99.90
2019-03-01T12:30:27.052Z,99.90
2019-03-01T12:32:55.829Z,99.90
2019-03-01T12:35:24.707Z,99.90
2019-03-01T12:37:53.559Z,99.90
2019-03-01T12:40:29.572Z,99.90
2019-03-01T12:42:58.411Z,99.90
2019-03-01T12:45:27.343Z,99.90
2019-03-01T12:47:56.116Z,99.90
2019-03-01T12:50:24.893Z,99.90
2019-03-01T12:52:53.676Z,99.90
2019-03-01T12:55:23.730Z,99.90
2019-03-01T12:57:52.533Z,99.90
2019-03-01T13:00:38.077Z,99.90
2019-03-01T13:03:08.986Z,99.90
2019-03-01T13:05:37.389Z,99.90
2019-03-01T13:08:06.131Z,99.90
2019-03-01T13:10:36.880Z,99.90
2019-03-01T13:13:08.387Z,99.90
2019-03-01T13:15:37.537Z,99.90
2019-03-01T13:18:09.733Z,99.90
2019-03-01T13:20:38.044Z,99.90
2019-03-01T13:23:07.195Z,99.90
2019-03-01T13:25:36.043Z,99.90
2019-03-01T13:28:04.973Z,99.90
2019-03-01T13:30:35.815Z,99.90
2019-03-01T13:33:04.346Z,99.90
2019-03-01T13:35:33.278Z,99.90
2019-03-01T13:38:03.707Z,99.90
2019-03-01T13:40:32.602Z,99.90
2019-03-01T13:43:01.491Z,99.90
2019-03-01T13:45:30.403Z,99.90
2019-03-01T13:47:59.196Z,99.90
2019-03-01T13:50:27.992Z,99.90
2019-03-01T13:52:56.787Z,99.90
2019-03-01T13:55:27.546Z,99.90
2019-03-01T13:57:56.106Z,99.90
2019-03-01T14:00:24.967Z,99.90
2019-03-01T14:02:53.768Z,99.90
2019-03-01T14:05:24.066Z,99.90
2019-03-01T14:07:56.727Z,99.90
2019-03-01T14:10:30.011Z,99.90
2019-03-01T14:12:58.893Z,99.90
2019-03-01T14:15:29.737Z,99.90
2019-03-01T14:18:01.151Z,99.90
2019-03-01T14:20:28.949Z,99.90
2019-03-01T14:22:57.761Z,99.90
2019-03-01T14:25:26.589Z,99.90
2019-03-01T14:27:55.378Z,99.90
2019-03-01T14:30:29.444Z,99.90
2019-03-01T14:32:57.750Z,99.90
2019-03-01T14:35:27.102Z,99.90
2019-03-01T14:37:56.083Z,99.90
2019-03-01T14:40:24.840Z,99.90
2019-03-01T14:42:53.620Z,99.90
2019-03-01T14:45:27.811Z,99.90
2019-03-01T14:47:56.737Z,99.90
2019-03-01T14:50:29.870Z,99.90
2019-03-01T14:52:59.920Z,99.90
2019-03-01T14:55:49.349Z,99.90
2019-03-01T14:58:23.889Z,99.90
2019-03-01T15:01:04.681Z,99.90
2019-03-01T15:03:35.303Z,99.90
2019-03-01T15:06:04.799Z,99.90
2019-03-01T15:08:33.817Z,99.90
2019-03-01T15:11:07.977Z,99.90
2019-03-01T15:13:36.008Z,99.90
2019-03-01T15:16:06.014Z,99.90
2019-03-01T15:18:35.292Z,99.90
2019-03-01T15:21:04.603Z,99.90
2019-03-01T15:23:33.349Z,99.90
2019-03-01T15:26:02.426Z,99.90
2019-03-01T15:28:31.248Z,99.90
2019-03-01T15:30:59.995Z,99.90
2019-03-01T15:33:28.769Z,99.90
2019-03-01T15:35:57.614Z,99.90
2019-03-01T15:38:27.583Z,99.90
2019-03-01T15:40:56.836Z,99.90
2019-03-01T15:43:26.524Z,99.90
2019-03-01T15:45:56.733Z,99.90
2019-03-01T15:48:25.618Z,99.90
2019-03-01T15:50:54.424Z,99.90
2019-03-01T15:53:25.053Z,99.90
2019-03-01T15:55:53.753Z,99.90
2019-03-01T15:58:22.492Z,99.90
2019-03-01T16:00:51.509Z,99.90
2019-03-01T16:03:20.262Z,99.90
2019-03-01T16:05:49.079Z,99.90
2019-03-01T16:08:18.259Z,99.90
2019-03-01T16:10:47.061Z,99.90
2019-03-01T16:13:15.877Z,99.90
2019-03-01T16:15:44.698Z,99.90
2019-03-01T16:18:13.511Z,99.90
2019-03-01T16:20:42.347Z,99.90
2019-03-01T16:23:11.237Z,99.90
2019-03-01T16:25:40.050Z,99.90
2019-03-01T16:28:08.868Z,99.90
2019-03-01T16:30:38.005Z,99.90
2019-03-01T16:33:07.018Z,99.90
2019-03-01T16:35:35.849Z,99.90
2019-03-01T16:38:05.210Z,99.90
2019-03-01T16:40:34.046Z,99.90
2019-03-01T16:43:02.885Z,99.90
2019-03-01T16:45:31.676Z,99.90
2019-03-01T16:48:00.985Z,99.90
2019-03-01T16:50:29.917Z,99.90
2019-03-01T16:53:04.258Z,99.90
2019-03-01T16:55:32.616Z,99.90
2019-03-01T16:58:06.849Z,99.90
2019-03-01T17:00:32.295Z,99.90
2019-03-01T17:03:09.769Z,99.90
2019-03-01T17:05:39.738Z,99.90
2019-03-01T17:08:08.611Z,99.90
2019-03-01T17:10:37.372Z,99.90
2019-03-01T17:13:06.150Z,99.90
2019-03-01T17:15:34.972Z,99.90
2019-03-01T17:18:03.740Z,99.90
2019-03-01T17:20:37.464Z,99.90
2019-03-01T17:23:03.794Z,99.90
2019-03-01T17:25:32.965Z,99.90
2019-03-01T17:28:01.740Z,99.90
2019-03-01T17:30:30.506Z,99.90
2019-03-01T17:32:59.247Z,99.90
2019-03-01T17:35:28.013Z,99.90
2019-03-01T17:37:56.801Z,99.90
2019-03-01T17:40:25.528Z,99.90
2019-03-01T17:42:56.567Z,99.90
2019-03-01T17:45:25.573Z,99.90
2019-03-01T17:47:55.373Z,99.90
2019-03-01T17:50:24.392Z,99.90
2019-03-01T17:52:53.121Z,99.90
2019-03-01T17:55:24.531Z,99.90
2019-03-01T17:57:53.545Z,99.90
2019-03-01T18:00:33.977Z,99.90
2019-03-01T18:03:03.014Z,99.90
2019-03-01T18:05:31.853Z,99.90
2019-03-01T18:08:03.593Z,99.90
2019-03-01T18:10:32.168Z,99.90
2019-03-01T18:13:01.783Z,99.90
2019-03-01T18:15:30.690Z,99.90
2019-03-01T18:17:59.533Z,99.90
2019-03-01T18:20:28.353Z,99.90
2019-03-01T18:22:59.311Z,99.90
2019-03-01T18:25:27.873Z,99.90
2019-03-01T18:27:56.674Z,99.90
2019-03-01T18:30:33.922Z,99.90
2019-03-01T18:33:02.755Z,99.90
2019-03-01T18:35:31.523Z,99.90
2019-03-01T18:38:00.389Z,99.90
2019-03-01T18:40:29.221Z,99.90
2019-03-01T18:42:58.007Z,99.90
2019-03-01T18:45:27.669Z,99.90
2019-03-01T18:47:56.521Z,99.90
2019-03-01T18:50:31.279Z,99.90
2019-03-01T18:53:03.844Z,99.90
2019-03-01T18:55:32.821Z,99.90
2019-03-01T18:58:01.654Z,99.90
2019-03-01T19:00:47.701Z,99.90
2019-03-01T19:03:16.497Z,99.90
2019-03-01T19:05:45.297Z,99.90
2019-03-01T19:08:14.317Z,99.90
2019-03-01T19:10:43.066Z,99.90
2019-03-01T19:13:12.511Z,99.90
2019-03-01T19:15:41.369Z,99.90
2019-03-01T19:18:10.112Z,99.90
2019-03-01T19:20:42.485Z,99.90
2019-03-01T19:23:11.682Z,99.90
2019-03-01T19:25:40.833Z,99.90
2019-03-01T19:28:09.669Z,99.90
2019-03-01T19:30:38.439Z,99.90
2019-03-01T19:33:07.252Z,99.90
2019-03-01T19:35:36.180Z,99.90
2019-03-01T19:38:04.961Z,99.90
2019-03-01T19:40:33.717Z,99.90
2019-03-01T19:43:02.530Z,99.90
2019-03-01T19:45:31.332Z,99.90
2019-03-01T19:48:03.268Z,99.90
2019-03-01T19:50:30.720Z,99.90
2019-03-01T19:52:59.465Z,99.90
2019-03-01T19:55:28.326Z,99.90
2019-03-01T19:57:57.700Z,99.90
2019-03-01T20:00:27.174Z,99.90
2019-03-01T20:02:55.961Z,99.90
2019-03-01T20:05:27.930Z,99.90
2019-03-01T20:07:58.084Z,99.90
2019-03-01T20:10:27.234Z,99.90
2019-03-01T20:12:56.035Z,99.90
2019-03-01T20:15:26.014Z,99.90
2019-03-01T20:17:54.768Z,99.90
2019-03-01T20:20:24.745Z,99.90
2019-03-01T20:22:54.276Z,99.90
2019-03-01T20:25:24.091Z,99.90
2019-03-01T20:27:52.863Z,99.90
2019-03-01T20:30:30.254Z,99.90
2019-03-01T20:32:56.518Z,99.90
2019-03-01T20:35:26.138Z,99.90
2019-03-01T20:37:55.554Z,99.90
2019-03-01T20:40:26.816Z,99.90
2019-03-01T20:42:56.021Z,99.90
2019-03-01T20:45:29.858Z,99.90
2019-03-01T20:47:58.762Z,99.90
2019-03-01T20:50:28.435Z,99.90
2019-03-01T20:52:57.185Z,99.90
2019-03-01T20:55:25.923Z,99.90
2019-03-01T20:57:54.652Z,99.90
2019-03-01T21:00:27.358Z,99.90
2019-03-01T21:02:56.976Z,99.90
2019-03-01T21:05:29.012Z,99.90
2019-03-01T21:07:56.189Z,99.90
2019-03-01T21:10:25.919Z,99.90
2019-03-01T21:12:54.803Z,99.90
2019-03-01T21:15:24.414Z,99.90
2019-03-01T21:17:57.121Z,99.90
2019-03-01T21:20:23.746Z,99.90
2019-03-01T21:22:52.468Z,99.90
2019-03-01T21:25:24.729Z,99.90
2019-03-01T21:27:53.457Z,99.90
2019-03-01T21:30:24.970Z,99.90
2019-03-01T21:32:53.822Z,99.90
2019-03-01T21:35:22.637Z,99.90
2019-03-01T21:37:52.046Z,99.90
2019-03-01T21:40:20.877Z,99.90
2019-03-01T21:42:52.878Z,99.90
2019-03-01T21:45:22.453Z,99.90
2019-03-01T21:47:51.405Z,99.90
2019-03-01T21:50:21.136Z,99.90
2019-03-01T21:52:49.913Z,99.90
2019-03-01T21:55:26.962Z,99.90
2019-03-01T21:57:54.032Z,99.90
2019-03-01T22:00:29.896Z,99.90
2019-03-01T22:02:57.448Z,99.90
2019-03-01T22:05:26.218Z,99.90
2019-03-01T22:07:54.945Z,99.90
2019-03-01T22:10:23.677Z,99.90
2019-03-01T22:12:52.469Z,99.90
2019-03-01T22:15:26.874Z,99.90
2019-03-01T22:17:56.200Z,99.90
2019-03-01T22:20:25.090Z,99.90
2019-03-01T22:22:54.121Z,99.90
2019-03-01T22:25:22.929Z,99.90
2019-03-01T22:27:51.663Z,99.90
2019-03-01T22:30:33.647Z,99.90
2019-03-01T22:33:02.440Z,99.90
2019-03-01T22:35:31.174Z,99.90
2019-03-01T22:38:01.152Z,99.90
2019-03-01T22:40:30.477Z,99.90
2019-03-01T22:42:59.261Z,99.90
2019-03-01T22:45:27.996Z,99.90
2019-03-01T22:47:56.775Z,99.90
2019-03-01T22:50:25.664Z,99.90
2019-03-01T22:52:54.668Z,99.90
2019-03-01T22:55:23.458Z,99.90
2019-03-01T22:57:52.275Z,99.90
2019-03-01T23:00:47.662Z,99.90
2019-03-01T23:03:18.806Z,99.90
2019-03-01T23:05:47.813Z,99.90
2019-03-01T23:08:16.574Z,99.90
2019-03-01T23:10:45.418Z,99.90
2019-03-01T23:13:16.958Z,99.90
2019-03-01T23:15:44.722Z,99.90
2019-03-01T23:18:13.601Z,99.90
2019-03-01T23:20:42.407Z,99.90
2019-03-01T23:23:11.250Z,99.90
2019-03-01T23:25:42.793Z,99.90
2019-03-01T23:28:11.376Z,99.90
2019-03-01T23:30:40.133Z,99.90
2019-03-01T23:33:08.902Z,99.90
2019-03-01T23:35:37.672Z,99.90
2019-03-01T23:38:06.414Z,99.90
2019-03-01T23:40:35.872Z,99.90
2019-03-01T23:43:05.484Z,99.90
2019-03-01T23:45:34.325Z,99.90
2019-03-01T23:48:03.102Z,99.90
2019-03-01T23:50:34.891Z,99.90
2019-03-01T23:53:02.413Z,99.90
2019-03-01T23:55:31.180Z,99.90
2019-03-01T23:58:06.038Z,99.90
